Time;durP1;ratioP1;P1;durP2;ratioP2;P2;SDS_P1;SDS_P2;PMS_P1;PMS_P2;Temp;Humidity;BMP_temperature;BMP_pressure;BME280_temperature;BME280_humidity;BME280_pressure;Samples;Min_cycle;Max_cycle;Signal;HPM_P1;HPM_P2
2022/03/01 00:01:42;;;;;;;16.60;6.88;;;3.50;99.90;;;;;;4928584;29;20076;-85
2022/03/01 00:04:08;;;;;;;13.90;7.72;;;3.50;99.90;;;;;;4927857;29;20048;-84
2022/03/01 00:06:33;;;;;;;13.85;8.10;;;3.40;99.90;;;;;;4930555;29;20099;-82
2022/03/01 00:08:59;;;;;;;14.52;7.15;;;3.40;99.90;;;;;;4939021;29;20036;-82
2022/03/01 00:11:25;;;;;;;14.38;7.05;;;3.30;99.90;;;;;;4938108;29;20047;-82
2022/03/01 00:13:50;;;;;;;15.32;7.78;;;3.30;99.90;;;;;;4938235;29;20040;-82
2022/03/01 00:16:17;;;;;;;19.05;7.43;;;3.30;99.90;;;;;;4920484;29;20070;-82
2022/03/01 00:18:44;;;;;;;13.23;7.43;;;3.30;99.90;;;;;;4938962;29;20044;-82
2022/03/01 00:21:10;;;;;;;12.68;6.72;;;3.30;99.90;;;;;;4935781;29;20562;-82
2022/03/01 00:23:35;;;;;;;14.30;7.22;;;3.40;99.90;;;;;;4931856;29;20111;-82
2022/03/01 00:26:01;;;;;;;15.63;7.82;;;3.40;99.90;;;;;;4931577;29;20069;-82
2022/03/01 00:28:27;;;;;;;16.58;6.90;;;3.40;99.90;;;;;;4931286;29;20040;-82
2022/03/01 00:30:52;;;;;;;14.55;8.63;;;3.30;99.90;;;;;;4928154;29;20063;-81
2022/03/01 00:33:18;;;;;;;13.85;7.72;;;3.20;99.90;;;;;;4932314;29;20044;-82
2022/03/01 00:35:43;;;;;;;13.80;7.30;;;3.20;99.90;;;;;;4927312;29;20472;-82
2022/03/01 00:38:09;;;;;;;18.88;8.27;;;3.10;99.90;;;;;;4923490;29;20126;-82
2022/03/01 00:40:34;;;;;;;16.52;7.97;;;3.10;99.90;;;;;;4919071;29;20096;-82
2022/03/01 00:43:00;;;;;;;13.80;7.72;;;3.00;99.90;;;;;;4919357;29;20043;-82
2022/03/01 00:45:25;;;;;;;12.07;7.25;;;3.10;99.90;;;;;;4919799;29;20047;-82
2022/03/01 00:47:51;;;;;;;18.33;7.72;;;3.00;99.90;;;;;;4919809;29;20043;-82
2022/03/01 00:50:16;;;;;;;14.35;7.82;;;3.00;99.90;;;;;;4919031;29;20039;-84
2022/03/01 00:52:42;;;;;;;14.32;7.63;;;2.90;99.90;;;;;;4926543;29;20047;-84
2022/03/01 00:55:08;;;;;;;12.02;6.95;;;2.80;99.90;;;;;;4925255;29;20047;-85
2022/03/01 00:57:33;;;;;;;15.07;7.30;;;2.80;99.90;;;;;;4925746;29;20103;-85
2022/03/01 00:59:59;;;;;;;14.70;8.00;;;2.80;99.90;;;;;;4923887;29;20051;-84
2022/03/01 01:02:24;;;;;;;16.80;7.57;;;2.70;99.90;;;;;;4925393;29;20064;-85
2022/03/01 01:04:50;;;;;;;16.75;7.93;;;2.70;99.90;;;;;;4910429;29;20035;-85
2022/03/01 01:07:16;;;;;;;14.00;7.57;;;2.70;99.90;;;;;;4928427;29;20071;-85
2022/03/01 01:09:42;;;;;;;15.25;7.13;;;2.60;99.90;;;;;;4927665;29;20067;-85
2022/03/01 01:12:09;;;;;;;14.68;7.28;;;2.50;99.90;;;;;;4928106;29;20048;-85
2022/03/01 01:14:34;;;;;;;16.13;7.28;;;2.40;99.90;;;;;;4926346;29;20271;-85
2022/03/01 01:17:00;;;;;;;16.65;7.43;;;2.50;99.90;;;;;;4923120;29;20059;-85
2022/03/01 01:19:25;;;;;;;15.77;7.72;;;2.50;99.90;;;;;;4928298;29;20047;-85
2022/03/01 01:24:35;;;;;;;11.85;7.50;;;2.50;99.90;;;;;;4928109;29;20084;-85
2022/03/01 01:27:01;;;;;;;14.98;7.43;;;2.50;99.90;;;;;;4928293;29;20039;-84
2022/03/01 01:29:27;;;;;;;14.30;7.03;;;2.60;99.90;;;;;;4927522;29;20068;-84
2022/03/01 01:31:52;;;;;;;15.73;8.20;;;2.60;99.90;;;;;;4923464;29;20095;-84
2022/03/01 01:34:18;;;;;;;11.75;6.65;;;2.50;99.90;;;;;;4922116;29;20054;-85
2022/03/01 01:36:43;;;;;;;15.65;7.05;;;2.50;99.90;;;;;;4922872;29;20051;-85
2022/03/01 01:39:09;;;;;;;15.00;7.15;;;2.50;99.90;;;;;;4926808;29;20054;-85
2022/03/01 01:41:34;;;;;;;12.95;7.15;;;2.60;99.90;;;;;;4926353;29;20052;-85
2022/03/01 01:44:05;;;;;;;15.00;7.10;;;2.60;99.90;;;;;;4925529;29;20042;-84
2022/03/01 01:46:30;;;;;;;16.60;7.07;;;2.70;99.90;;;;;;4925992;29;20044;-84
2022/03/01 01:48:56;;;;;;;15.02;6.93;;;2.70;99.90;;;;;;4926020;29;20071;-85
2022/03/01 01:51:23;;;;;;;15.20;7.43;;;2.70;99.90;;;;;;4925366;29;20048;-85
2022/03/01 01:53:49;;;;;;;15.45;8.02;;;2.60;99.90;;;;;;4926213;29;20086;-84
2022/03/01 01:56:14;;;;;;;16.60;7.32;;;2.60;99.90;;;;;;4926480;29;20047;-84
2022/03/01 01:58:40;;;;;;;20.77;7.40;;;2.50;99.90;;;;;;4924876;29;20039;-85
2022/03/01 02:01:05;;;;;;;18.95;7.80;;;2.50;99.90;;;;;;4925871;29;20050;-85
2022/03/01 02:03:31;;;;;;;19.13;8.07;;;2.30;99.90;;;;;;4925842;29;20078;-84
2022/03/01 02:05:56;;;;;;;15.90;7.93;;;2.30;99.90;;;;;;4925831;29;20044;-84
2022/03/01 02:08:31;;;;;;;16.17;7.13;;;2.30;99.90;;;;;;4925968;29;20043;-85
2022/03/01 02:10:58;;;;;;;11.27;7.10;;;2.30;99.90;;;;;;4910110;29;20047;-85
2022/03/01 02:13:24;;;;;;;15.90;8.07;;;2.20;99.90;;;;;;4926149;29;20048;-85
2022/03/01 02:15:50;;;;;;;14.15;7.38;;;2.20;99.90;;;;;;4925885;29;20050;-85
2022/03/01 02:18:16;;;;;;;14.85;7.32;;;2.10;99.90;;;;;;4925634;29;20063;-85
2022/03/01 02:20:42;;;;;;;12.18;7.05;;;2.10;99.90;;;;;;4927021;29;20054;-85
2022/03/01 02:23:08;;;;;;;13.93;7.45;;;2.10;99.90;;;;;;4925985;29;20043;-84
2022/03/01 02:25:33;;;;;;;13.55;7.90;;;2.10;99.90;;;;;;4927233;29;20043;-85
2022/03/01 02:27:59;;;;;;;15.13;7.32;;;2.10;99.90;;;;;;4927889;29;20047;-85
2022/03/01 02:30:25;;;;;;;18.83;8.40;;;2.00;99.90;;;;;;4928264;29;20078;-84
2022/03/01 02:32:51;;;;;;;17.50;7.63;;;2.00;99.90;;;;;;4927259;29;20078;-84
2022/03/01 02:35:17;;;;;;;13.00;7.10;;;2.00;99.90;;;;;;4927814;29;20063;-85
2022/03/01 02:37:43;;;;;;;15.95;7.95;;;2.00;99.90;;;;;;4927787;29;20040;-85
2022/03/01 02:40:10;;;;;;;15.82;7.90;;;2.10;99.90;;;;;;4927733;29;20509;-85
2022/03/01 02:42:40;;;;;;;16.13;8.63;;;2.10;99.90;;;;;;4927556;29;20043;-85
2022/03/01 02:45:08;;;;;;;14.40;7.78;;;2.00;99.90;;;;;;4928378;29;20031;-84
2022/03/01 02:47:34;;;;;;;18.40;7.53;;;2.00;99.90;;;;;;4927623;29;20490;-85
2022/03/01 02:49:59;;;;;;;19.15;8.27;;;2.00;99.90;;;;;;4926321;29;20075;-84
2022/03/01 02:52:25;;;;;;;15.68;7.82;;;2.00;99.90;;;;;;4927423;29;20094;-84
2022/03/01 02:54:51;;;;;;;14.50;7.60;;;2.00;99.90;;;;;;4928022;29;20541;-85
2022/03/01 02:57:16;;;;;;;14.35;7.07;;;2.00;99.90;;;;;;4927295;29;20043;-84
2022/03/01 02:59:42;;;;;;;13.35;7.35;;;2.10;99.90;;;;;;4921144;29;20122;-85
2022/03/01 03:02:09;;;;;;;13.90;7.40;;;2.10;99.90;;;;;;4920719;29;20039;-84
2022/03/01 03:04:35;;;;;;;15.68;8.00;;;2.10;99.90;;;;;;4920678;29;20079;-84
2022/03/01 03:07:00;;;;;;;17.67;7.88;;;2.20;99.90;;;;;;4929719;29;20040;-84
2022/03/01 03:09:26;;;;;;;16.38;8.18;;;2.20;99.90;;;;;;4931002;29;20071;-86
2022/03/01 03:11:52;;;;;;;15.23;7.10;;;2.10;99.90;;;;;;4932355;29;20047;-85
2022/03/01 03:14:18;;;;;;;18.08;8.32;;;2.10;99.90;;;;;;4934149;29;20103;-81
2022/03/01 03:16:43;;;;;;;19.20;8.23;;;2.10;99.90;;;;;;4930229;29;20055;-82
2022/03/01 03:19:10;;;;;;;17.00;7.70;;;2.00;99.90;;;;;;4905405;29;20503;-81
2022/03/01 03:21:36;;;;;;;18.50;8.60;;;1.90;99.90;;;;;;4920433;29;20043;-82
2022/03/01 03:24:02;;;;;;;12.57;6.75;;;2.00;99.90;;;;;;4913227;29;20043;-81
2022/03/01 03:26:28;;;;;;;16.33;8.07;;;1.90;99.90;;;;;;4914992;29;20059;-81
2022/03/01 03:28:53;;;;;;;18.80;9.07;;;1.90;99.90;;;;;;4934913;29;20049;-81
2022/03/01 03:31:19;;;;;;;12.93;7.97;;;1.80;99.90;;;;;;4938181;29;20422;-82
2022/03/01 03:33:44;;;;;;;16.70;8.35;;;1.80;99.90;;;;;;4937936;29;20043;-82
2022/03/01 03:36:10;;;;;;;17.90;8.43;;;1.80;99.90;;;;;;4933457;29;20107;-81
2022/03/01 03:38:35;;;;;;;16.58;8.43;;;1.80;99.90;;;;;;4934509;29;20099;-82
2022/03/01 03:41:01;;;;;;;17.63;8.25;;;1.80;99.90;;;;;;4913697;29;20047;-82
2022/03/01 03:43:26;;;;;;;18.80;8.05;;;1.80;99.90;;;;;;4916169;29;20044;-82
2022/03/01 03:45:52;;;;;;;15.90;7.43;;;1.80;99.90;;;;;;4931682;29;20198;-82
2022/03/01 03:48:17;;;;;;;18.25;8.52;;;1.80;99.90;;;;;;4929274;29;20087;-82
2022/03/01 03:50:43;;;;;;;15.00;7.63;;;1.80;99.90;;;;;;4928974;29;20048;-82
2022/03/01 03:53:09;;;;;;;16.80;7.88;;;1.90;99.90;;;;;;4928924;29;20039;-82
2022/03/01 03:55:34;;;;;;;16.25;7.35;;;1.80;99.90;;;;;;4932534;29;20043;-82
2022/03/01 03:58:00;;;;;;;17.15;7.95;;;1.90;99.90;;;;;;4927133;29;20086;-82
2022/03/01 04:00:26;;;;;;;15.10;7.45;;;1.80;99.90;;;;;;4919647;29;20040;-82
2022/03/01 04:02:51;;;;;;;20.15;8.13;;;1.80;99.90;;;;;;4920501;29;20040;-82
2022/03/01 04:05:17;;;;;;;17.65;8.45;;;1.80;99.90;;;;;;4920994;29;20044;-82
2022/03/01 04:07:45;;;;;;;17.48;7.80;;;1.80;99.90;;;;;;4919851;29;20056;-82
2022/03/01 04:10:11;;;;;;;16.83;8.23;;;1.80;99.90;;;;;;4922623;29;20050;-81
2022/03/01 04:12:37;;;;;;;15.70;7.60;;;1.90;99.90;;;;;;4927797;29;20062;-81
2022/03/01 04:15:05;;;;;;;16.33;8.55;;;1.80;99.90;;;;;;4929586;29;20043;-81
2022/03/01 04:17:31;;;;;;;15.15;7.68;;;1.80;99.90;;;;;;4929267;29;20419;-82
2022/03/01 04:19:56;;;;;;;19.23;8.73;;;1.90;99.90;;;;;;4926886;29;20051;-81
2022/03/01 04:22:22;;;;;;;14.88;8.05;;;1.80;99.90;;;;;;4925191;29;20043;-81
2022/03/01 04:24:48;;;;;;;16.15;8.57;;;1.80;99.90;;;;;;4925302;29;20503;-82
2022/03/01 04:27:13;;;;;;;18.88;8.50;;;1.90;99.90;;;;;;4925119;29;20043;-82
2022/03/01 04:29:39;;;;;;;15.38;7.97;;;1.90;99.90;;;;;;4925235;29;20039;-81
2022/03/01 04:32:05;;;;;;;24.73;8.45;;;1.90;99.90;;;;;;4926928;29;20418;-82
2022/03/01 04:34:31;;;;;;;17.67;8.52;;;1.90;99.90;;;;;;4927057;29;20040;-82
2022/03/01 04:36:56;;;;;;;16.58;8.20;;;1.90;99.90;;;;;;4926836;29;20107;-81
2022/03/01 04:39:22;;;;;;;16.73;8.43;;;1.90;99.90;;;;;;4927980;29;20053;-81
2022/03/01 04:41:48;;;;;;;15.27;8.35;;;1.90;99.90;;;;;;4928474;29;20491;-82
2022/03/01 04:44:14;;;;;;;17.85;7.88;;;1.80;99.90;;;;;;4921639;29;20063;-82
2022/03/01 04:46:41;;;;;;;18.95;9.32;;;1.90;99.90;;;;;;4919284;29;20081;-82
2022/03/01 04:49:07;;;;;;;16.10;7.68;;;1.90;99.90;;;;;;4919759;29;20042;-82
2022/03/01 04:51:33;;;;;;;16.33;8.85;;;1.90;99.90;;;;;;4919179;29;20051;-82
2022/03/01 04:53:59;;;;;;;17.15;9.13;;;1.90;99.90;;;;;;4919303;29;20040;-82
2022/03/01 04:56:25;;;;;;;16.00;8.82;;;1.90;99.90;;;;;;4929493;29;20040;-82
2022/03/01 04:58:51;;;;;;;19.70;9.35;;;1.90;99.90;;;;;;4930381;29;20076;-82
2022/03/01 05:01:17;;;;;;;20.15;9.63;;;2.00;99.90;;;;;;4930729;29;20040;-82
2022/03/01 05:03:43;;;;;;;16.42;8.57;;;2.00;99.90;;;;;;4929564;29;20039;-82
2022/03/01 05:06:09;;;;;;;23.00;9.20;;;2.00;99.90;;;;;;4903310;29;20402;-82
2022/03/01 05:08:34;;;;;;;16.92;8.05;;;2.10;99.90;;;;;;4919106;29;20040;-82
2022/03/01 05:11:02;;;;;;;17.58;9.25;;;2.10;99.90;;;;;;4918352;29;20389;-82
2022/03/01 05:13:27;;;;;;;17.35;8.90;;;2.10;99.90;;;;;;4926084;29;20043;-82
2022/03/01 05:15:53;;;;;;;16.00;8.38;;;2.20;99.90;;;;;;4923894;29;20091;-82
2022/03/01 05:18:19;;;;;;;20.67;8.40;;;2.20;99.90;;;;;;4923127;29;20072;-82
2022/03/01 05:20:44;;;;;;;17.13;8.55;;;2.30;99.90;;;;;;4938436;29;20046;-82
2022/03/01 05:23:10;;;;;;;19.23;9.10;;;2.30;99.90;;;;;;4922225;29;20074;-82
2022/03/01 05:25:35;;;;;;;14.73;7.85;;;2.40;99.90;;;;;;4923698;29;20069;-82
2022/03/01 05:28:01;;;;;;;18.08;8.02;;;2.40;99.90;;;;;;4930814;29;20558;-82
2022/03/01 05:30:27;;;;;;;18.77;9.45;;;2.40;99.90;;;;;;4911679;29;20051;-82
2022/03/01 05:32:54;;;;;;;17.90;9.40;;;2.40;99.90;;;;;;4912229;29;20065;-82
2022/03/01 05:35:23;;;;;;;15.57;8.27;;;2.50;99.90;;;;;;4927636;29;20055;-82
2022/03/01 05:37:52;;;;;;;17.73;9.13;;;2.50;99.90;;;;;;4921837;29;20027;-82
2022/03/01 05:40:19;;;;;;;17.95;8.32;;;2.50;99.90;;;;;;4937653;29;20040;-82
2022/03/01 05:42:45;;;;;;;16.65;9.05;;;2.50;99.90;;;;;;4936383;29;20063;-85
2022/03/01 05:45:11;;;;;;;16.85;8.43;;;2.60;99.90;;;;;;4927792;29;20040;-84
2022/03/01 05:47:38;;;;;;;15.88;8.20;;;2.60;99.90;;;;;;4927932;29;20040;-84
2022/03/01 05:50:04;;;;;;;14.00;8.23;;;2.60;99.90;;;;;;4927089;29;20055;-85
2022/03/01 05:52:30;;;;;;;18.27;8.82;;;2.60;99.90;;;;;;4919635;29;20040;-86
2022/03/01 05:54:56;;;;;;;15.30;8.55;;;2.70;99.90;;;;;;4916983;29;20116;-86
2022/03/01 05:57:27;;;;;;;19.00;8.52;;;2.60;99.90;;;;;;4917035;29;20049;-85
2022/03/01 05:59:53;;;;;;;22.05;9.35;;;2.60;99.90;;;;;;4916825;29;20051;-86
2022/03/01 06:02:19;;;;;;;14.75;8.32;;;2.50;99.90;;;;;;4917524;29;20035;-86
2022/03/01 06:04:44;;;;;;;15.35;8.50;;;2.60;99.90;;;;;;4917662;29;20046;-86
2022/03/01 06:07:10;;;;;;;15.80;8.02;;;2.50;99.90;;;;;;4917320;29;20434;-85
2022/03/01 06:09:35;;;;;;;16.00;7.97;;;2.40;99.90;;;;;;4917275;29;20043;-86
2022/03/01 06:12:01;;;;;;;16.90;8.38;;;2.40;99.90;;;;;;4917193;29;20082;-86
2022/03/01 06:14:26;;;;;;;16.17;9.07;;;2.40;99.90;;;;;;4917163;29;20130;-86
2022/03/01 06:16:52;;;;;;;16.20;8.40;;;2.30;99.90;;;;;;4917152;29;20059;-85
2022/03/01 06:19:18;;;;;;;18.08;8.02;;;2.30;99.90;;;;;;4916840;29;20051;-86
2022/03/01 06:21:43;;;;;;;19.80;8.65;;;2.20;99.90;;;;;;4916580;29;20044;-85
2022/03/01 06:24:09;;;;;;;16.58;8.15;;;2.20;99.90;;;;;;4919828;29;20044;-87
2022/03/01 06:26:34;;;;;;;14.45;7.50;;;2.20;99.90;;;;;;4905101;29;20071;-85
2022/03/01 06:29:00;;;;;;;18.60;8.30;;;2.20;99.90;;;;;;4920758;29;20487;-86
2022/03/01 06:31:26;;;;;;;17.05;7.90;;;2.20;99.90;;;;;;4920572;29;20050;-86
2022/03/01 06:33:51;;;;;;;15.80;7.97;;;2.20;99.90;;;;;;4920345;29;20043;-86
2022/03/01 06:36:17;;;;;;;17.48;8.43;;;2.20;99.90;;;;;;4920535;29;20066;-84
2022/03/01 06:38:43;;;;;;;14.70;8.10;;;2.20;99.90;;;;;;4920426;29;20060;-84
2022/03/01 06:41:08;;;;;;;18.52;9.23;;;2.20;99.90;;;;;;4920567;29;20039;-84
2022/03/01 06:46:09;;;;;;;20.55;8.43;;;2.30;99.90;;;;;;4212670;26;20051;-82
2022/03/01 06:48:36;;;;;;;20.75;8.65;;;2.30;99.90;;;;;;4938807;29;20051;-82
2022/03/01 06:51:03;;;;;;;19.20;7.95;;;2.30;99.90;;;;;;4929451;29;20044;-82
2022/03/01 06:53:29;;;;;;;16.38;8.68;;;2.40;99.90;;;;;;4927733;29;20048;-82
2022/03/01 06:55:55;;;;;;;16.05;8.07;;;2.40;99.90;;;;;;4921117;29;20054;-82
2022/03/01 06:58:20;;;;;;;20.23;7.95;;;2.50;99.90;;;;;;4905561;29;20107;-82
2022/03/01 07:00:46;;;;;;;17.10;8.10;;;2.50;99.90;;;;;;4920729;29;20044;-82
2022/03/01 07:03:12;;;;;;;13.95;7.75;;;2.60;99.90;;;;;;4921533;29;20044;-82
2022/03/01 07:05:37;;;;;;;17.40;8.82;;;2.60;99.90;;;;;;4921048;29;20126;-82
2022/03/01 07:08:03;;;;;;;21.77;9.05;;;2.70;99.90;;;;;;4921159;29;20508;-82
2022/03/01 07:10:29;;;;;;;18.38;8.52;;;2.80;99.90;;;;;;4920732;29;20491;-82
2022/03/01 07:12:54;;;;;;;19.38;8.23;;;2.80;99.90;;;;;;4920634;29;20047;-82
2022/03/01 07:15:20;;;;;;;15.98;8.27;;;2.90;99.90;;;;;;4920967;29;20069;-82
2022/03/01 07:17:46;;;;;;;19.95;9.13;;;3.00;99.90;;;;;;4921406;29;20470;-82
2022/03/01 07:20:13;;;;;;;20.52;8.88;;;3.00;99.90;;;;;;4921559;29;20043;-82
2022/03/01 07:22:39;;;;;;;18.02;8.93;;;3.10;99.90;;;;;;4924394;29;20075;-82
2022/03/01 07:25:06;;;;;;;17.83;8.38;;;3.20;99.90;;;;;;4920922;29;20035;-82
2022/03/01 07:27:31;;;;;;;18.77;8.57;;;3.20;99.90;;;;;;4904626;29;20055;-82
2022/03/01 07:29:57;;;;;;;23.02;8.77;;;3.40;99.90;;;;;;4923294;29;20044;-82
2022/03/01 07:32:23;;;;;;;19.27;8.60;;;3.40;99.90;;;;;;4921179;29;20071;-82
2022/03/01 07:34:48;;;;;;;19.48;9.23;;;3.40;99.90;;;;;;4919952;29;20039;-82
2022/03/01 07:37:14;;;;;;;15.82;7.10;;;3.50;99.90;;;;;;4921244;29;20213;-82
2022/03/01 07:39:41;;;;;;;18.30;8.45;;;3.60;99.90;;;;;;4920652;29;20039;-82
2022/03/01 07:42:06;;;;;;;20.98;9.40;;;3.60;99.90;;;;;;4920630;29;20535;-83
2022/03/01 07:44:36;;;;;;;15.77;7.63;;;3.70;99.90;;;;;;4920075;29;20040;-82
2022/03/01 07:47:06;;;;;;;16.20;8.30;;;3.80;99.90;;;;;;4922243;29;20103;-82
2022/03/01 07:49:33;;;;;;;21.15;8.68;;;3.80;99.90;;;;;;4920012;29;20495;-82
2022/03/01 07:51:58;;;;;;;17.17;8.85;;;3.90;99.90;;;;;;4920161;29;20051;-82
2022/03/01 07:54:24;;;;;;;16.38;9.02;;;3.90;99.90;;;;;;4920828;29;20043;-82
2022/03/01 07:56:49;;;;;;;20.27;10.40;;;4.00;99.90;;;;;;4920207;29;20043;-82
2022/03/01 07:59:15;;;;;;;20.23;9.20;;;3.90;99.90;;;;;;4904322;29;20047;-82
2022/03/01 08:01:41;;;;;;;18.60;8.82;;;4.00;99.90;;;;;;4919737;29;20096;-82
2022/03/01 08:04:07;;;;;;;16.10;8.93;;;4.00;99.90;;;;;;4919797;29;20043;-82
2022/03/01 08:06:33;;;;;;;19.10;9.32;;;4.00;99.90;;;;;;4920036;29;20116;-82
2022/03/01 08:08:58;;;;;;;20.67;9.43;;;4.10;99.90;;;;;;4920124;29;20452;-82
2022/03/01 08:11:24;;;;;;;18.38;9.35;;;4.00;99.90;;;;;;4903942;29;20130;-82
2022/03/01 08:13:49;;;;;;;20.02;9.55;;;4.10;99.90;;;;;;4919805;29;20521;-82
2022/03/01 08:16:15;;;;;;;16.92;8.65;;;4.20;99.90;;;;;;4920095;29;20052;-82
2022/03/01 08:18:41;;;;;;;24.02;10.68;;;4.10;99.90;;;;;;4919758;29;20040;-82
2022/03/01 08:21:07;;;;;;;17.95;9.23;;;4.10;99.90;;;;;;4919387;29;20138;-82
2022/03/01 08:23:33;;;;;;;18.13;8.85;;;4.10;99.90;;;;;;4919526;29;20043;-82
2022/03/01 08:25:58;;;;;;;20.42;10.18;;;4.20;99.90;;;;;;4919374;29;20039;-82
2022/03/01 08:28:25;;;;;;;19.10;9.68;;;4.20;99.90;;;;;;4920115;29;20372;-82
2022/03/01 08:30:52;;;;;;;22.58;9.60;;;4.20;99.90;;;;;;4920109;29;20527;-82
2022/03/01 08:33:20;;;;;;;17.38;9.63;;;4.30;99.90;;;;;;4919188;29;20051;-82
2022/03/01 08:35:45;;;;;;;20.60;9.90;;;4.40;99.90;;;;;;4918710;29;20052;-82
2022/03/01 08:38:11;;;;;;;17.35;8.80;;;4.50;99.90;;;;;;4918782;29;20084;-82
2022/03/01 08:40:38;;;;;;;18.13;9.55;;;4.60;99.90;;;;;;4918357;29;20570;-82
2022/03/01 08:43:04;;;;;;;22.83;9.05;;;4.80;99.90;;;;;;4918786;29;20099;-82
2022/03/01 08:45:30;;;;;;;21.45;9.77;;;4.90;99.90;;;;;;4919009;29;20092;-82
2022/03/01 08:47:56;;;;;;;18.90;9.02;;;5.00;99.90;;;;;;4917992;29;20052;-82
2022/03/01 08:50:21;;;;;;;17.13;8.93;;;5.10;99.90;;;;;;4902774;29;20055;-82
2022/03/01 08:52:48;;;;;;;19.50;9.95;;;5.10;99.90;;;;;;4919195;29;20142;-83
2022/03/01 08:55:14;;;;;;;18.88;9.10;;;5.10;99.90;;;;;;4918630;29;20048;-82
2022/03/01 08:57:39;;;;;;;19.95;9.77;;;5.30;99.90;;;;;;4918471;29;20099;-82
2022/03/01 09:00:07;;;;;;;18.13;9.07;;;5.30;99.90;;;;;;4918162;29;20044;-82
2022/03/01 09:02:33;;;;;;;20.05;9.93;;;5.40;99.90;;;;;;4918893;29;20100;-82
2022/03/01 09:04:59;;;;;;;17.33;9.38;;;5.50;99.90;;;;;;4902875;29;20069;-82
2022/03/01 09:07:25;;;;;;;19.30;9.57;;;5.60;99.90;;;;;;4918479;29;20039;-82
2022/03/01 09:09:51;;;;;;;18.83;10.18;;;5.60;99.90;;;;;;4918147;29;20043;-82
2022/03/01 09:12:17;;;;;;;17.40;10.02;;;5.60;99.90;;;;;;4918332;29;20047;-82
2022/03/01 09:14:43;;;;;;;18.42;9.80;;;5.60;99.90;;;;;;4918539;29;20044;-82
2022/03/01 09:17:09;;;;;;;17.67;9.70;;;5.60;99.90;;;;;;4918153;29;20487;-83
2022/03/01 09:19:34;;;;;;;18.27;9.07;;;5.70;99.90;;;;;;4917854;29;20054;-82
2022/03/01 09:22:00;;;;;;;20.75;9.70;;;5.80;99.90;;;;;;4917809;29;20058;-83
2022/03/01 09:24:26;;;;;;;18.90;10.43;;;5.80;99.90;;;;;;4918631;29;20061;-83
2022/03/01 09:26:51;;;;;;;17.10;9.52;;;6.00;99.90;;;;;;4918136;29;20039;-83
2022/03/01 09:29:17;;;;;;;16.88;8.68;;;6.10;99.90;;;;;;4918515;29;20478;-83
2022/03/01 09:31:42;;;;;;;17.95;8.93;;;6.20;99.90;;;;;;4918141;29;20048;-82
2022/03/01 09:34:08;;;;;;;22.50;10.57;;;6.20;99.90;;;;;;4918237;29;20044;-83
2022/03/01 09:36:33;;;;;;;14.20;8.52;;;6.30;99.90;;;;;;4902588;29;20051;-83
2022/03/01 09:38:59;;;;;;;19.65;11.38;;;6.40;99.90;;;;;;4918456;29;20115;-82
2022/03/01 09:41:26;;;;;;;15.82;8.38;;;6.50;99.90;;;;;;4918098;29;20565;-82
2022/03/01 09:43:58;;;;;;;17.70;9.85;;;6.70;99.90;;;;;;4918284;29;20533;-83
2022/03/01 09:46:24;;;;;;;19.80;9.48;;;6.80;99.90;;;;;;4918001;29;20126;-82
2022/03/01 09:48:49;;;;;;;17.20;10.13;;;6.90;99.90;;;;;;4918161;29;20185;-82
2022/03/01 09:51:16;;;;;;;20.92;8.95;;;6.90;99.90;;;;;;4902565;29;20583;-82
2022/03/01 09:53:42;;;;;;;19.88;9.15;;;6.90;99.90;;;;;;4933829;29;20043;-82
2022/03/01 09:56:09;;;;;;;18.05;9.63;;;6.80;99.90;;;;;;4918178;29;20039;-83
2022/03/01 09:58:35;;;;;;;14.95;8.82;;;6.90;99.90;;;;;;4920076;29;20047;-83
2022/03/01 10:01:01;;;;;;;18.48;8.90;;;6.80;99.90;;;;;;4921501;29;20052;-83
2022/03/01 10:03:28;;;;;;;18.77;9.93;;;6.80;99.90;;;;;;4905951;29;20047;-83
2022/03/01 10:06:04;;;;;;;19.35;10.30;;;6.80;99.90;;;;;;4921849;29;20043;-83
2022/03/01 10:08:31;;;;;;;21.00;9.48;;;6.90;99.90;;;;;;4921754;29;20491;-83
2022/03/01 10:10:57;;;;;;;16.40;9.80;;;6.90;99.90;;;;;;4921375;29;20084;-83
2022/03/01 10:13:29;;;;;;;17.58;9.50;;;7.10;99.90;;;;;;4921674;29;20124;-83
2022/03/01 10:16:09;;;;;;;16.67;8.63;;;7.50;99.90;;;;;;4921809;29;20055;-83
2022/03/01 10:18:38;;;;;;;18.08;9.18;;;8.00;94.10;;;;;;4920975;29;20649;-85
2022/03/01 10:21:09;;;;;;;18.08;9.20;;;8.60;97.00;;;;;;4920661;29;20407;-85
2022/03/01 10:23:35;;;;;;;21.80;9.60;;;8.90;91.80;;;;;;4920703;29;20052;-85
2022/03/01 10:26:18;;;;;;;20.15;10.13;;;9.00;91.20;;;;;;4920945;29;20035;-85
2022/03/01 10:28:45;;;;;;;19.02;9.52;;;9.10;78.70;;;;;;4920572;29;20052;-85
2022/03/01 10:31:19;;;;;;;18.70;10.02;;;9.20;91.20;;;;;;4920466;29;20054;-85
2022/03/01 10:34:00;;;;;;;17.65;10.43;;;9.20;83.80;;;;;;4920397;29;20043;-85
2022/03/01 10:36:33;;;;;;;18.75;9.85;;;9.00;78.00;;;;;;4920333;29;20525;-85
2022/03/01 10:39:09;;;;;;;17.77;9.40;;;8.90;91.90;;;;;;4920282;29;20426;-85
2022/03/01 10:41:37;;;;;;;16.52;9.23;;;8.80;84.10;;;;;;4920040;29;20047;-85
2022/03/01 10:44:03;;;;;;;18.40;9.35;;;8.80;90.20;;;;;;4920264;29;20040;-85
2022/03/01 10:46:36;;;;;;;14.88;8.75;;;8.90;92.90;;;;;;4919856;29;20071;-85
2022/03/01 10:49:15;;;;;;;19.92;10.93;;;9.00;92.70;;;;;;4919855;29;20040;-85
2022/03/01 10:51:49;;;;;;;17.48;9.77;;;9.10;78.60;;;;;;4919587;29;20055;-85
2022/03/01 10:54:35;;;;;;;16.75;9.38;;;9.10;77.30;;;;;;4920006;29;20048;-85
2022/03/01 10:57:04;;;;;;;15.05;8.77;;;9.10;81.80;;;;;;4919453;29;20600;-85
2022/03/01 10:59:33;;;;;;;18.48;9.43;;;9.20;89.60;;;;;;4919555;29;20533;-86
2022/03/01 11:01:59;;;;;;;19.38;9.80;;;9.30;87.30;;;;;;4919215;29;20047;-86
2022/03/01 11:04:26;;;;;;;14.38;8.43;;;9.50;87.60;;;;;;4919469;29;20044;-86
2022/03/01 11:06:58;;;;;;;15.32;8.57;;;9.60;82.90;;;;;;4919350;29;20124;-86
2022/03/01 11:09:25;;;;;;;18.95;9.55;;;9.60;78.30;;;;;;4920245;29;20094;-85
2022/03/01 11:11:51;;;;;;;16.95;9.07;;;9.60;84.60;;;;;;4919418;29;20048;-83
2022/03/01 11:14:30;;;;;;;17.08;9.05;;;9.60;83.70;;;;;;4936980;29;20056;-83
2022/03/01 11:17:11;;;;;;;16.27;9.80;;;9.50;73.90;;;;;;4921166;29;20518;-83
2022/03/01 11:20:10;;;;;;;19.13;9.40;;;9.50;84.20;;;;;;4920416;29;20114;-83
2022/03/01 11:22:52;;;;;;;15.23;8.90;;;9.50;76.70;;;;;;4920477;29;20040;-83
2022/03/01 11:25:22;;;;;;;18.02;9.95;;;9.50;79.00;;;;;;4920740;29;20123;-83
2022/03/01 11:27:50;;;;;;;18.35;9.90;;;9.50;76.10;;;;;;4920798;29;20039;-83
2022/03/01 11:30:17;;;;;;;24.05;9.90;;;9.50;80.70;;;;;;4920078;29;20043;-83
2022/03/01 11:32:45;;;;;;;21.05;10.45;;;9.60;81.20;;;;;;4920241;29;20052;-83
2022/03/01 11:35:23;;;;;;;21.05;9.30;;;9.70;79.90;;;;;;4920013;29;20380;-83
2022/03/01 11:38:18;;;;;;;16.73;9.20;;;9.90;70.70;;;;;;4920419;29;20052;-83
2022/03/01 11:40:47;;;;;;;18.35;9.30;;;10.10;70.80;;;;;;4927493;29;20411;-83
2022/03/01 11:43:22;;;;;;;18.27;9.07;;;10.10;72.70;;;;;;4919774;29;20486;-83
2022/03/01 11:45:51;;;;;;;19.27;9.52;;;10.10;72.40;;;;;;4920198;29;20048;-83
2022/03/01 11:48:21;;;;;;;20.58;9.88;;;10.00;71.20;;;;;;4919834;29;20471;-83
2022/03/01 11:50:59;;;;;;;15.98;8.70;;;9.90;73.10;;;;;;4919424;29;20048;-82
2022/03/01 11:53:28;;;;;;;13.13;8.55;;;10.00;75.20;;;;;;4919642;29;20123;-83
2022/03/01 11:55:57;;;;;;;20.27;9.85;;;10.00;70.10;;;;;;4920440;29;20527;-83
2022/03/01 11:58:25;;;;;;;16.10;8.55;;;10.00;70.20;;;;;;4919920;29;20043;-83
2022/03/01 12:00:52;;;;;;;16.98;9.15;;;10.00;73.80;;;;;;4919334;29;20147;-83
2022/03/01 12:03:25;;;;;;;20.88;9.50;;;10.00;74.20;;;;;;4919645;29;20072;-82
2022/03/01 12:05:51;;;;;;;16.27;9.60;;;10.10;72.80;;;;;;4919586;29;20085;-82
2022/03/01 12:08:18;;;;;;;16.60;9.50;;;10.10;73.00;;;;;;4919796;29;20040;-83
2022/03/01 12:10:58;;;;;;;16.38;9.23;;;10.10;72.10;;;;;;4919420;29;20047;-82
2022/03/01 12:13:42;;;;;;;19.35;9.30;;;10.20;70.40;;;;;;4919625;29;20047;-83
2022/03/01 12:16:09;;;;;;;21.95;10.43;;;10.30;72.10;;;;;;4919646;29;20059;-83
2022/03/01 12:18:37;;;;;;;16.48;9.10;;;10.40;74.20;;;;;;4903950;29;20091;-83
2022/03/01 12:21:06;;;;;;;15.55;9.25;;;10.30;72.20;;;;;;4919291;29;20059;-83
2022/03/01 12:23:33;;;;;;;17.30;9.32;;;10.30;67.30;;;;;;4903846;29;20039;-83
2022/03/01 12:26:01;;;;;;;16.05;9.48;;;10.30;70.00;;;;;;4919206;29;20031;-83
2022/03/01 12:28:33;;;;;;;15.40;9.27;;;10.30;70.80;;;;;;4920279;29;20503;-83
2022/03/01 12:31:06;;;;;;;15.52;8.50;;;10.30;68.70;;;;;;4919518;29;20120;-83
2022/03/01 12:33:32;;;;;;;18.00;8.65;;;10.30;66.40;;;;;;4919371;29;20495;-83
2022/03/01 12:36:02;;;;;;;16.13;9.38;;;10.40;69.00;;;;;;4919398;29;20048;-83
2022/03/01 12:38:28;;;;;;;17.80;9.43;;;10.40;68.00;;;;;;4919434;29;20068;-82
2022/03/01 12:40:53;;;;;;;16.60;10.32;;;10.50;68.00;;;;;;4919158;29;20502;-82
2022/03/01 12:43:19;;;;;;;15.70;8.82;;;10.40;66.50;;;;;;4903209;29;20052;-83
2022/03/01 12:45:46;;;;;;;16.90;8.93;;;10.40;66.40;;;;;;4902984;29;20133;-83
2022/03/01 12:48:15;;;;;;;16.48;9.18;;;10.30;65.70;;;;;;4919033;29;20124;-83
2022/03/01 12:50:49;;;;;;;16.45;9.40;;;10.30;66.20;;;;;;4918618;29;20047;-82